createdAt,value
2018-10-17T00:01:40.391Z,19.93
2018-10-17T00:04:09.294Z,21.13
2018-10-17T00:06:38.065Z,19.70
2018-10-17T00:09:09.040Z,21.50
2018-10-17T00:11:38.259Z,21.57
2018-10-17T00:14:07.230Z,21.90
2018-10-17T00:16:35.929Z,21.63
2018-10-17T00:19:04.782Z,22.43
2018-10-17T00:21:33.449Z,23.40
2018-10-17T00:24:02.208Z,22.53
2018-10-17T00:26:31.101Z,23.17
2018-10-17T00:28:59.799Z,22.47
2018-10-17T00:31:28.672Z,22.47
2018-10-17T00:33:57.466Z,22.63
2018-10-17T00:36:26.248Z,22.23
2018-10-17T00:38:54.931Z,23.47
2018-10-17T00:41:23.640Z,21.57
2018-10-17T00:43:52.353Z,22.97
2018-10-17T00:46:21.016Z,23.27
2018-10-17T00:48:49.822Z,22.80
2018-10-17T00:51:18.717Z,28.03
2018-10-17T00:53:47.521Z,23.07
2018-10-17T00:56:16.252Z,23.63
2018-10-17T00:59:14.317Z,22.47
2018-10-17T01:01:43.054Z,23.77
2018-10-17T01:04:11.876Z,23.67
2018-10-17T01:06:40.744Z,23.63
2018-10-17T01:09:11.112Z,23.37
2018-10-17T01:11:40.255Z,23.93
2018-10-17T01:14:09.423Z,22.27
2018-10-17T01:16:38.275Z,21.97
2018-10-17T01:19:07.341Z,20.70
2018-10-17T01:21:36.746Z,22.43
2018-10-17T01:24:05.547Z,22.47
2018-10-17T01:26:34.336Z,23.23
2018-10-17T01:29:03.004Z,22.10
2018-10-17T01:31:31.652Z,22.27
2018-10-17T01:34:00.220Z,21.73
2018-10-17T01:36:29.017Z,20.70
2018-10-17T01:38:57.957Z,21.83
2018-10-17T01:41:26.783Z,21.13
2018-10-17T01:43:55.676Z,20.70
2018-10-17T01:46:24.567Z,20.27
2018-10-17T01:48:53.246Z,21.23
2018-10-17T01:51:22.068Z,21.30
2018-10-17T01:53:50.860Z,22.33
2018-10-17T01:56:19.661Z,20.83
2018-10-17T01:58:48.439Z,21.80
2018-10-17T02:01:17.256Z,20.70
2018-10-17T02:03:45.949Z,20.87
2018-10-17T02:06:14.656Z,20.17
2018-10-17T02:08:43.321Z,20.87
2018-10-17T02:11:12.163Z,20.20
2018-10-17T02:13:40.677Z,21.00
2018-10-17T02:16:09.373Z,20.13
2018-10-17T02:18:38.152Z,20.67
2018-10-17T02:21:06.876Z,18.73
2018-10-17T02:23:35.639Z,20.07
2018-10-17T02:26:04.332Z,18.83
2018-10-17T02:28:33.074Z,18.50
2018-10-17T02:31:01.967Z,19.17
2018-10-17T02:33:30.713Z,20.37
2018-10-17T02:35:59.520Z,18.63
2018-10-17T02:38:28.333Z,19.73
2018-10-17T02:40:57.120Z,18.97
2018-10-17T02:43:25.760Z,20.73
2018-10-17T02:45:54.490Z,18.33
2018-10-17T02:48:23.256Z,19.47
2018-10-17T02:50:51.830Z,20.47
2018-10-17T02:53:20.413Z,18.73
2018-10-17T02:55:48.962Z,20.23
2018-10-17T02:58:17.762Z,20.50
2018-10-17T03:00:46.562Z,20.63
2018-10-17T03:03:15.338Z,20.37
2018-10-17T03:05:44.029Z,18.80
2018-10-17T03:08:12.711Z,19.53
2018-10-17T03:10:41.397Z,20.77
2018-10-17T03:13:10.233Z,19.27
2018-10-17T03:15:39.151Z,20.70
2018-10-17T03:18:07.953Z,21.10
2018-10-17T03:20:36.663Z,20.63
2018-10-17T03:23:05.920Z,18.93
2018-10-17T03:25:34.696Z,19.43
2018-10-17T03:28:03.429Z,17.80
2018-10-17T03:30:32.184Z,18.67
2018-10-17T03:33:01.130Z,18.93
2018-10-17T03:35:29.989Z,18.93
2018-10-17T03:37:58.811Z,18.97
2018-10-17T03:40:27.582Z,18.90
2018-10-17T03:42:56.293Z,18.80
2018-10-17T03:45:25.113Z,19.57
2018-10-17T03:47:53.809Z,19.20
2018-10-17T03:50:22.382Z,19.27
2018-10-17T03:52:51.146Z,19.23
2018-10-17T03:55:19.760Z,19.67
2018-10-17T03:57:48.392Z,19.67
2018-10-17T04:00:17.159Z,19.23
2018-10-17T04:02:45.906Z,18.80
2018-10-17T04:05:14.821Z,19.37
2018-10-17T04:07:43.760Z,19.20
2018-10-17T04:10:12.577Z,19.80
2018-10-17T04:12:41.421Z,19.77
2018-10-17T04:15:10.252Z,18.63
2018-10-17T04:17:38.950Z,19.87
2018-10-17T04:20:07.713Z,19.33
2018-10-17T04:22:36.321Z,20.50
2018-10-17T04:25:05.466Z,19.63
2018-10-17T04:27:34.158Z,19.50
2018-10-17T04:30:02.743Z,19.60
2018-10-17T04:32:31.481Z,20.27
2018-10-17T04:35:00.225Z,19.33
2018-10-17T04:37:29.559Z,19.00
2018-10-17T04:39:58.253Z,19.60
2018-10-17T04:42:26.939Z,19.47
2018-10-17T04:44:55.766Z,19.17
2018-10-17T04:47:24.409Z,19.37
2018-10-17T04:49:53.213Z,20.20
2018-10-17T04:52:21.801Z,20.10
2018-10-17T04:54:50.368Z,20.10
2018-10-17T04:58:43.441Z,21.47
2018-10-17T05:01:12.441Z,20.40
2018-10-17T05:03:41.258Z,20.83
2018-10-17T05:06:10.074Z,21.30
2018-10-17T05:08:39.082Z,21.33
2018-10-17T05:11:08.264Z,22.73
2018-10-17T05:13:37.154Z,23.73
2018-10-17T05:16:06.082Z,20.33
2018-10-17T05:18:38.802Z,20.90
2018-10-17T05:21:08.677Z,20.83
2018-10-17T05:23:37.671Z,20.13
2018-10-17T05:26:06.699Z,20.00
2018-10-17T05:28:35.466Z,20.23
2018-10-17T05:31:04.305Z,20.00
2018-10-17T05:33:33.159Z,21.13
2018-10-17T05:36:01.980Z,20.10
2018-10-17T05:38:31.463Z,20.83
2018-10-17T05:41:07.253Z,21.47
2018-10-17T05:43:36.034Z,20.30
2018-10-17T05:46:05.736Z,21.50
2018-10-17T05:48:35.079Z,21.10
2018-10-17T05:51:05.110Z,20.50
2018-10-17T05:53:33.978Z,20.93
2018-10-17T05:56:06.202Z,21.13
2018-10-17T05:58:34.983Z,21.67
2018-10-17T06:01:03.838Z,22.33
2018-10-17T06:03:32.768Z,22.27
2018-10-17T06:06:01.771Z,22.63
2018-10-17T06:08:30.690Z,22.23
2018-10-17T06:10:59.596Z,23.27
2018-10-17T06:13:28.508Z,22.00
2018-10-17T06:15:58.026Z,22.57
2018-10-17T06:18:27.006Z,22.50
2018-10-17T06:20:56.428Z,21.93
2018-10-17T06:23:25.266Z,21.37
2018-10-17T06:25:53.990Z,20.93
2018-10-17T06:28:22.907Z,20.93
2018-10-17T06:30:51.912Z,21.37
2018-10-17T06:33:20.713Z,21.17
2018-10-17T06:35:49.723Z,22.43
2018-10-17T06:38:18.709Z,20.93
2018-10-17T06:40:47.482Z,18.80
2018-10-17T06:43:16.521Z,19.87
2018-10-17T06:45:46.433Z,19.83
2018-10-17T06:48:15.366Z,18.60
2018-10-17T06:50:44.226Z,18.60
2018-10-17T06:53:13.846Z,18.03
2018-10-17T06:55:42.476Z,17.67
2018-10-17T06:58:11.196Z,15.83
2018-10-17T07:00:40.089Z,16.97
2018-10-17T07:03:09.043Z,17.83
2018-10-17T07:05:37.817Z,16.77
2018-10-17T07:08:06.568Z,17.40
2018-10-17T07:10:35.444Z,17.03
2018-10-17T07:13:04.146Z,17.50
2018-10-17T07:15:33.299Z,16.77
2018-10-17T07:18:01.897Z,16.97
2018-10-17T07:20:30.875Z,16.73
2018-10-17T07:22:59.688Z,16.53
2018-10-17T07:25:28.478Z,16.73
2018-10-17T07:27:57.174Z,17.00
2018-10-17T07:30:25.881Z,16.73
2018-10-17T07:32:54.678Z,17.45
2018-10-17T07:35:23.557Z,16.45
2018-10-17T07:37:52.364Z,16.30
2018-10-17T07:40:21.127Z,16.67
2018-10-17T07:42:49.957Z,17.50
2018-10-17T07:45:19.577Z,16.25
2018-10-17T07:47:48.493Z,15.63
2018-10-17T07:50:17.236Z,16.85
2018-10-17T07:52:46.071Z,17.30
2018-10-17T07:55:14.906Z,17.62
2018-10-17T07:57:43.705Z,19.00
2018-10-17T08:00:14.139Z,18.70
2018-10-17T08:02:42.977Z,20.10
2018-10-17T08:05:11.739Z,19.53
2018-10-17T08:07:40.573Z,19.10
2018-10-17T08:10:10.353Z,20.10
2018-10-17T08:12:39.522Z,19.20
2018-10-17T08:15:09.059Z,19.57
2018-10-17T08:17:37.897Z,20.37
2018-10-17T08:20:08.747Z,19.83
2018-10-17T08:22:37.709Z,19.50
2018-10-17T08:25:08.296Z,19.53
2018-10-17T08:27:37.135Z,20.00
2018-10-17T08:30:07.103Z,20.10
2018-10-17T08:32:35.857Z,19.67
2018-10-17T08:35:04.713Z,18.97
2018-10-17T08:37:33.822Z,19.07
2018-10-17T08:40:02.401Z,18.73
2018-10-17T08:42:31.437Z,19.57
2018-10-17T08:45:00.331Z,17.70
2018-10-17T08:47:29.225Z,20.20
2018-10-17T08:49:58.953Z,20.30
2018-10-17T08:52:27.748Z,19.33
2018-10-17T08:54:56.483Z,20.87
2018-10-17T08:57:25.285Z,21.47
2018-10-17T08:59:54.022Z,20.77
2018-10-17T09:02:22.861Z,20.97
2018-10-17T09:04:51.853Z,21.93
2018-10-17T09:07:20.737Z,23.40
2018-10-17T09:09:49.439Z,22.77
2018-10-17T09:12:18.307Z,23.93
2018-10-17T09:14:47.084Z,22.93
2018-10-17T09:17:15.753Z,24.33
2018-10-17T09:19:44.679Z,25.33
2018-10-17T09:22:13.705Z,24.67
2018-10-17T09:24:42.130Z,25.27
2018-10-17T09:27:10.969Z,24.00
2018-10-17T09:29:39.750Z,24.47
2018-10-17T09:32:08.474Z,23.83
2018-10-17T09:34:37.280Z,24.93
2018-10-17T09:37:06.172Z,24.53
2018-10-17T09:39:34.824Z,23.93
2018-10-17T09:42:03.543Z,24.43
2018-10-17T09:44:32.252Z,24.57
2018-10-17T09:47:00.873Z,23.77
2018-10-17T09:49:29.561Z,24.70
2018-10-17T09:51:58.458Z,22.98
2018-10-17T09:54:27.274Z,24.40
2018-10-17T09:56:55.881Z,26.10
2018-10-17T09:59:24.698Z,24.90
2018-10-17T10:01:54.108Z,24.73
2018-10-17T10:04:23.603Z,24.70
2018-10-17T10:06:52.335Z,24.82
2018-10-17T10:09:21.214Z,26.27
2018-10-17T10:11:49.944Z,24.77
2018-10-17T10:14:18.686Z,24.65
2018-10-17T10:16:47.388Z,23.80
2018-10-17T10:19:16.127Z,25.60
2018-10-17T10:21:44.981Z,25.68
2018-10-17T10:24:13.820Z,29.10
2018-10-17T10:26:42.530Z,30.27
2018-10-17T10:29:11.286Z,27.10
2018-10-17T10:31:40.005Z,24.80
2018-10-17T10:34:08.786Z,24.82
2018-10-17T10:36:37.969Z,24.35
2018-10-17T10:39:09.664Z,24.98
2018-10-17T10:41:38.628Z,23.42
2018-10-17T10:44:07.476Z,25.90
2018-10-17T10:46:36.444Z,22.93
2018-10-17T10:49:05.360Z,24.00
2018-10-17T10:51:34.299Z,24.07
2018-10-17T10:54:03.785Z,23.70
2018-10-17T10:56:32.452Z,20.68
2018-10-17T10:59:01.431Z,22.67
2018-10-17T11:01:30.240Z,22.17
2018-10-17T11:03:59.055Z,19.60
2018-10-17T11:06:27.810Z,19.48
2018-10-17T11:08:56.548Z,19.75
2018-10-17T11:11:25.293Z,19.92
2018-10-17T11:13:54.094Z,19.42
2018-10-17T11:16:22.935Z,20.77
2018-10-17T11:18:51.776Z,22.05
2018-10-17T11:21:20.497Z,22.20
2018-10-17T11:23:49.202Z,21.30
2018-10-17T11:26:18.086Z,22.02
2018-10-17T11:28:53.231Z,20.27
2018-10-17T11:31:22.202Z,20.70
2018-10-17T11:33:51.926Z,20.88
2018-10-17T11:36:20.685Z,22.13
2018-10-17T11:38:49.502Z,22.82
2018-10-17T11:41:18.455Z,23.55
2018-10-17T11:43:47.841Z,21.77
2018-10-17T11:46:16.553Z,23.47
2018-10-17T11:48:47.496Z,22.42
2018-10-17T11:51:18.143Z,23.00
2018-10-17T11:53:46.838Z,22.32
2018-10-17T11:56:16.892Z,22.75
2018-10-17T11:58:45.886Z,22.10
2018-10-17T12:01:14.612Z,23.05
2018-10-17T12:03:43.567Z,22.95
2018-10-17T12:06:12.545Z,23.60
2018-10-17T12:08:41.233Z,25.32
2018-10-17T12:11:10.202Z,22.62
2018-10-17T12:13:39.001Z,24.20
2018-10-17T12:16:07.790Z,23.55
2018-10-17T12:18:36.757Z,22.82
2018-10-17T12:21:05.877Z,22.73
2018-10-17T12:23:34.740Z,22.60
2018-10-17T12:26:03.451Z,23.25
2018-10-17T12:28:32.355Z,22.87
2018-10-17T12:31:00.860Z,23.00
2018-10-17T12:33:29.635Z,23.18
2018-10-17T12:35:58.447Z,23.57
2018-10-17T12:38:27.309Z,24.87
2018-10-17T12:40:56.233Z,23.87
2018-10-17T12:43:24.695Z,22.75
2018-10-17T12:45:53.301Z,23.65
2018-10-17T12:48:22.080Z,22.30
2018-10-17T12:50:50.867Z,23.15
2018-10-17T12:53:19.676Z,23.00
2018-10-17T12:55:48.415Z,24.23
2018-10-17T12:58:17.270Z,22.37
2018-10-17T13:00:46.126Z,24.40
2018-10-17T13:03:14.860Z,23.10
2018-10-17T13:05:43.576Z,23.07
2018-10-17T13:08:12.437Z,22.58
2018-10-17T13:10:41.308Z,23.07
2018-10-17T13:13:10.250Z,23.38
2018-10-17T13:15:38.981Z,22.80
2018-10-17T13:18:07.816Z,24.12
2018-10-17T13:20:36.665Z,24.37
2018-10-17T13:23:05.609Z,23.32
2018-10-17T13:25:34.146Z,23.80
2018-10-17T13:28:02.893Z,21.97
2018-10-17T13:30:31.704Z,22.58
2018-10-17T13:33:00.568Z,24.10
2018-10-17T13:35:29.383Z,22.05
2018-10-17T13:37:58.058Z,21.75
2018-10-17T13:40:26.771Z,22.02
2018-10-17T13:42:55.491Z,21.65
2018-10-17T13:45:24.471Z,21.82
2018-10-17T13:47:53.154Z,23.42
2018-10-17T13:50:21.920Z,23.18
2018-10-17T13:52:50.617Z,22.75
2018-10-17T13:55:19.566Z,21.10
2018-10-17T13:57:48.375Z,22.40
2018-10-17T14:00:17.085Z,20.92
2018-10-17T14:02:45.777Z,20.17
2018-10-17T14:05:14.764Z,20.12
2018-10-17T14:07:43.586Z,20.30
2018-10-17T14:10:12.203Z,20.50
2018-10-17T14:12:40.795Z,21.20
2018-10-17T14:15:09.598Z,20.12
2018-10-17T14:17:38.386Z,17.92
2018-10-17T14:20:07.141Z,18.27
2018-10-17T14:22:35.826Z,19.15
2018-10-17T14:25:04.605Z,19.17
2018-10-17T14:29:02.409Z,19.55
2018-10-17T14:31:31.197Z,18.23
2018-10-17T14:33:59.933Z,19.35
2018-10-17T14:36:29.101Z,19.10
2018-10-17T14:38:57.893Z,19.50
2018-10-17T14:41:26.473Z,19.42
2018-10-17T14:43:55.319Z,20.00
2018-10-17T14:46:24.095Z,18.37
2018-10-17T14:48:52.798Z,17.98
2018-10-17T14:51:21.513Z,19.02
2018-10-17T14:53:50.140Z,18.37
2018-10-17T14:56:19.070Z,18.50
2018-10-17T14:58:47.801Z,18.40
2018-10-17T15:01:16.668Z,19.25
2018-10-17T15:03:45.352Z,19.95
2018-10-17T15:06:14.103Z,18.27
2018-10-17T15:08:42.778Z,17.15
2018-10-17T15:11:11.582Z,18.45
2018-10-17T15:13:40.302Z,18.07
2018-10-17T15:16:09.166Z,17.23
2018-10-17T15:18:37.949Z,16.90
2018-10-17T15:21:06.592Z,16.67
2018-10-17T15:23:35.276Z,15.73
2018-10-17T15:26:03.988Z,14.80
2018-10-17T15:28:34.992Z,16.07
2018-10-17T15:31:04.121Z,16.10
2018-10-17T15:33:32.908Z,21.90
2018-10-17T15:36:01.681Z,18.73
2018-10-17T15:38:30.509Z,19.53
2018-10-17T15:40:59.402Z,23.43
2018-10-17T15:43:28.390Z,18.23
2018-10-17T15:45:57.192Z,17.67
2018-10-17T15:48:25.965Z,18.37
2018-10-17T15:50:54.813Z,18.17
2018-10-17T15:53:23.653Z,20.23
2018-10-17T15:55:53.002Z,19.20
2018-10-17T15:58:21.710Z,22.40
2018-10-17T16:00:50.564Z,16.73
2018-10-17T16:03:19.301Z,17.47
2018-10-17T16:05:48.003Z,18.77
2018-10-17T16:08:16.659Z,26.60
2018-10-17T16:10:45.429Z,19.37
2018-10-17T16:13:14.132Z,20.30
2018-10-17T16:15:42.873Z,18.50
2018-10-17T16:18:12.376Z,17.70
2018-10-17T16:20:41.651Z,20.10
2018-10-17T16:23:10.388Z,19.60
2018-10-17T16:25:39.112Z,20.07
2018-10-17T16:28:08.168Z,21.87
2018-10-17T16:30:40.533Z,22.60
2018-10-17T16:33:09.284Z,19.67
2018-10-17T16:35:38.218Z,21.87
2018-10-17T16:38:07.175Z,20.67
2018-10-17T16:40:35.932Z,20.10
2018-10-17T16:43:04.492Z,21.67
2018-10-17T16:45:33.800Z,21.97
2018-10-17T16:48:03.566Z,20.93
2018-10-17T16:50:34.302Z,22.53
2018-10-17T16:53:02.857Z,21.93
2018-10-17T16:55:31.569Z,22.50
2018-10-17T16:58:00.333Z,22.50
2018-10-17T17:00:28.985Z,23.03
2018-10-17T17:02:57.785Z,26.10
2018-10-17T17:05:26.595Z,24.40
2018-10-17T17:07:55.525Z,24.17
2018-10-17T17:10:24.324Z,23.50
2018-10-17T17:12:53.129Z,22.63
2018-10-17T17:15:21.784Z,22.77
2018-10-17T17:17:50.427Z,23.27
2018-10-17T17:20:19.155Z,23.57
2018-10-17T17:22:47.877Z,23.60
2018-10-17T17:25:16.689Z,23.47
2018-10-17T17:27:45.432Z,25.37
2018-10-17T17:30:17.748Z,28.30
2018-10-17T17:32:47.425Z,27.27
2018-10-17T17:35:16.109Z,25.43
2018-10-17T17:37:44.920Z,24.60
2018-10-17T17:40:14.616Z,23.43
2018-10-17T17:42:45.277Z,24.10
2018-10-17T17:45:14.097Z,23.50
2018-10-17T17:47:42.923Z,24.07
2018-10-17T17:50:11.845Z,23.63
2018-10-17T17:52:40.529Z,23.37
2018-10-17T17:55:09.695Z,23.87
2018-10-17T17:57:38.708Z,23.30
2018-10-17T18:00:08.173Z,22.47
2018-10-17T18:02:36.892Z,22.23
2018-10-17T18:05:06.291Z,23.37
2018-10-17T18:07:34.990Z,22.43
2018-10-17T18:10:03.632Z,23.10
2018-10-17T18:12:32.344Z,22.10
2018-10-17T18:15:01.054Z,22.40
2018-10-17T18:17:29.987Z,22.27
2018-10-17T18:19:58.816Z,22.33
2018-10-17T18:22:27.751Z,22.73
2018-10-17T18:24:56.550Z,22.57
2018-10-17T18:27:25.317Z,22.27
2018-10-17T18:29:54.464Z,22.57
2018-10-17T18:32:23.324Z,21.40
2018-10-17T18:34:52.128Z,22.50
2018-10-17T18:37:20.866Z,22.33
2018-10-17T18:39:49.556Z,22.23
2018-10-17T18:42:18.513Z,21.97
2018-10-17T18:44:47.417Z,22.73
2018-10-17T18:47:16.256Z,22.57
2018-10-17T18:49:45.053Z,23.50
2018-10-17T18:52:13.795Z,23.10
2018-10-17T18:54:42.472Z,24.03
2018-10-17T18:57:11.335Z,24.87
2018-10-17T18:59:39.945Z,23.37
2018-10-17T19:02:08.785Z,23.80
2018-10-17T19:04:37.597Z,24.63
2018-10-17T19:07:06.671Z,23.90
2018-10-17T19:09:35.466Z,25.17
2018-10-17T19:12:04.243Z,24.90
2018-10-17T19:14:33.068Z,23.60
2018-10-17T19:17:01.789Z,24.03
2018-10-17T19:19:30.582Z,23.97
2018-10-17T19:21:59.308Z,23.00
2018-10-17T19:24:28.141Z,23.90
2018-10-17T19:26:56.752Z,23.90
2018-10-17T19:29:25.584Z,23.93
2018-10-17T19:31:54.196Z,24.27
2018-10-17T19:34:22.928Z,24.60
2018-10-17T19:36:51.772Z,24.47
2018-10-17T19:39:20.651Z,24.80
2018-10-17T19:41:49.478Z,25.17
2018-10-17T19:44:18.310Z,25.13
2018-10-17T19:46:47.079Z,24.70
2018-10-17T19:49:15.762Z,25.07
2018-10-17T19:51:44.496Z,24.80
2018-10-17T19:54:13.516Z,25.20
2018-10-17T19:56:42.370Z,23.93
2018-10-17T19:59:11.105Z,26.40
2018-10-17T20:01:39.813Z,28.47
2018-10-17T20:04:08.527Z,30.07
2018-10-17T20:06:37.145Z,32.30
2018-10-17T20:09:08.695Z,29.57
2018-10-17T20:11:37.461Z,30.00
2018-10-17T20:14:06.344Z,28.30
2018-10-17T20:16:35.059Z,29.07
2018-10-17T20:19:03.869Z,29.10
2018-10-17T20:21:32.552Z,28.73
2018-10-17T20:24:01.795Z,27.33
2018-10-17T20:26:30.580Z,28.77
2018-10-17T20:28:59.307Z,26.90
2018-10-17T20:31:28.170Z,28.17
2018-10-17T20:33:57.005Z,28.13
2018-10-17T20:36:25.695Z,26.83
2018-10-17T20:38:54.512Z,26.87
2018-10-17T20:41:23.427Z,26.93
2018-10-17T20:43:52.316Z,26.53
2018-10-17T20:46:21.000Z,26.97
2018-10-17T20:48:49.737Z,26.33
2018-10-17T20:51:18.410Z,27.77
2018-10-17T20:53:47.143Z,26.03
2018-10-17T20:56:15.825Z,26.83
2018-10-17T20:58:44.633Z,26.87
2018-10-17T21:01:13.356Z,27.50
2018-10-17T21:03:42.075Z,26.10
2018-10-17T21:06:10.741Z,27.07
2018-10-17T21:08:39.433Z,27.00
2018-10-17T21:11:08.240Z,26.03
2018-10-17T21:13:36.945Z,25.87
2018-10-17T21:16:05.661Z,26.13
2018-10-17T21:18:34.609Z,25.80
2018-10-17T21:21:03.230Z,26.10
2018-10-17T21:23:32.001Z,26.93
2018-10-17T21:26:00.632Z,27.03
2018-10-17T21:28:29.345Z,27.83
2018-10-17T21:30:58.284Z,27.33
2018-10-17T21:33:26.916Z,30.70
2018-10-17T21:35:55.588Z,31.37
2018-10-17T21:38:24.676Z,30.60
2018-10-17T21:40:53.398Z,30.13
2018-10-17T21:43:22.466Z,28.37
2018-10-17T21:45:51.229Z,27.50
2018-10-17T21:48:19.869Z,25.50
2018-10-17T21:50:48.582Z,28.00
2018-10-17T21:53:17.355Z,26.43
2018-10-17T21:55:46.101Z,27.53
2018-10-17T21:58:14.993Z,28.33
2018-10-17T22:00:43.814Z,28.30
2018-10-17T22:03:12.522Z,27.57
2018-10-17T22:05:41.133Z,27.73
2018-10-17T22:08:10.226Z,27.43
2018-10-17T22:10:38.902Z,27.80
2018-10-17T22:13:07.588Z,27.60
2018-10-17T22:15:36.210Z,27.07
2018-10-17T22:18:04.765Z,27.60
2018-10-17T22:20:33.467Z,30.23
2018-10-17T22:23:02.266Z,29.07
2018-10-17T22:25:30.991Z,30.23
2018-10-17T22:27:59.693Z,31.17
2018-10-17T22:30:28.514Z,30.33
2018-10-17T22:32:57.225Z,30.00
2018-10-17T22:35:26.225Z,27.63
2018-10-17T22:37:55.154Z,31.07
2018-10-17T22:40:23.847Z,31.80
2018-10-17T22:42:52.404Z,31.23
2018-10-17T22:45:21.020Z,33.53
2018-10-17T22:47:49.737Z,33.33
2018-10-17T22:50:18.563Z,30.00
2018-10-17T22:52:47.496Z,29.07
2018-10-17T22:55:16.093Z,31.23
2018-10-17T22:57:45.076Z,29.83
2018-10-17T23:00:13.798Z,28.93
2018-10-17T23:02:42.604Z,29.00
2018-10-17T23:05:11.270Z,29.53
2018-10-17T23:07:39.973Z,31.03
2018-10-17T23:10:08.580Z,29.00
2018-10-17T23:12:37.252Z,28.30
2018-10-17T23:15:10.709Z,27.27
2018-10-17T23:17:39.388Z,26.03
2018-10-17T23:20:08.099Z,26.23
2018-10-17T23:22:36.935Z,26.33
2018-10-17T23:25:06.465Z,29.37
2018-10-17T23:27:35.082Z,30.33
2018-10-17T23:30:03.812Z,27.47
2018-10-17T23:32:32.577Z,26.93
2018-10-17T23:35:01.437Z,28.87
2018-10-17T23:37:30.132Z,28.07
2018-10-17T23:39:59.142Z,25.87
2018-10-17T23:42:27.832Z,28.67
2018-10-17T23:44:56.636Z,28.53
2018-10-17T23:47:25.472Z,27.10
2018-10-17T23:49:54.307Z,26.27
2018-10-17T23:52:23.274Z,27.33
2018-10-17T23:54:52.873Z,27.17
2018-10-17T23:57:21.618Z,27.40
2018-10-17T23:59:50.261Z,28.33
